sensor_id;sensor_type;location;lat;lon;timestamp;pressure;altitude;pressure_sealevel;temperature;humidity
23361;BME280;11852;50.082;18.554;2022-09-17T00:00:16;97600.5;;;11.9;81.98
23361;BME280;11852;50.082;18.554;2022-09-17T00:01:21;97601.5;;;11.56;82.92
23361;BME280;11852;50.082;18.554;2022-09-17T00:02:24;97598.0;;;11.68;82.34
23361;BME280;11852;50.082;18.554;2022-09-17T00:03:29;97599.5;;;11.44;83.13
23361;BME280;11852;50.082;18.554;2022-09-17T00:04:34;97599.0;;;11.75;82.11
23361;BME280;11852;50.082;18.554;2022-09-17T00:05:39;97600.0;;;11.89;81.83
23361;BME280;11852;50.082;18.554;2022-09-17T00:06:43;97599.0;;;11.84;82.07
23361;BME280;11852;50.082;18.554;2022-09-17T00:07:49;97598.5;;;11.66;82.53
23361;BME280;11852;50.082;18.554;2022-09-17T00:08:53;97599.0;;;11.75;82.23
23361;BME280;11852;50.082;18.554;2022-09-17T00:09:57;97600.0;;;11.75;82.21
23361;BME280;11852;50.082;18.554;2022-09-17T00:11:13;97601.0;;;11.75;82.23
23361;BME280;11852;50.082;18.554;2022-09-17T00:12:15;97599.5;;;11.99;81.65
23361;BME280;11852;50.082;18.554;2022-09-17T00:13:19;97600.0;;;12.16;81.11
23361;BME280;11852;50.082;18.554;2022-09-17T00:14:23;97601.0;;;12.16;81.13
23361;BME280;11852;50.082;18.554;2022-09-17T00:15:28;97598.5;;;12.29;80.72
23361;BME280;11852;50.082;18.554;2022-09-17T00:16:36;97604.0;;;12.36;80.49
23361;BME280;11852;50.082;18.554;2022-09-17T00:17:40;97602.5;;;12.23;80.88
23361;BME280;11852;50.082;18.554;2022-09-17T00:18:44;97604.51;;;11.76;82.51
23361;BME280;11852;50.082;18.554;2022-09-17T00:19:49;97605.5;;;11.82;82.04
23361;BME280;11852;50.082;18.554;2022-09-17T00:20:54;97606.0;;;11.97;81.55
23361;BME280;11852;50.082;18.554;2022-09-17T00:21:59;97605.0;;;11.97;81.61
23361;BME280;11852;50.082;18.554;2022-09-17T00:23:03;97602.5;;;12.06;81.4
23361;BME280;11852;50.082;18.554;2022-09-17T00:24:08;97602.5;;;12.07;81.45
23361;BME280;11852;50.082;18.554;2022-09-17T00:25:12;97598.5;;;11.98;81.72
23361;BME280;11852;50.082;18.554;2022-09-17T00:26:17;97598.5;;;11.84;82.14
23361;BME280;11852;50.082;18.554;2022-09-17T00:27:22;97596.0;;;11.78;82.29
23361;BME280;11852;50.082;18.554;2022-09-17T00:28:26;97596.5;;;11.92;81.76
23361;BME280;11852;50.082;18.554;2022-09-17T00:29:30;97597.0;;;11.81;82.13
23361;BME280;11852;50.082;18.554;2022-09-17T00:30:37;97593.0;;;11.95;81.55
23361;BME280;11852;50.082;18.554;2022-09-17T00:31:39;97595.5;;;11.91;81.64
23361;BME280;11852;50.082;18.554;2022-09-17T00:32:44;97594.0;;;11.88;81.75
23361;BME280;11852;50.082;18.554;2022-09-17T00:33:49;97593.5;;;11.97;81.47
23361;BME280;11852;50.082;18.554;2022-09-17T00:34:53;97589.5;;;12.09;80.97
23361;BME280;11852;50.082;18.554;2022-09-17T00:35:59;97589.5;;;12.08;81.17
23361;BME280;11852;50.082;18.554;2022-09-17T00:37:03;97593.51;;;12.09;81.24
23361;BME280;11852;50.082;18.554;2022-09-17T00:38:08;97592.01;;;12.17;81.04
23361;BME280;11852;50.082;18.554;2022-09-17T00:39:13;97594.5;;;12.15;81.17
23361;BME280;11852;50.082;18.554;2022-09-17T00:40:17;97596.0;;;12.14;81.19
23361;BME280;11852;50.082;18.554;2022-09-17T00:41:21;97595.49;;;11.9;81.95
23361;BME280;11852;50.082;18.554;2022-09-17T00:42:26;97598.0;;;11.86;81.88
23361;BME280;11852;50.082;18.554;2022-09-17T00:43:35;97596.5;;;11.94;81.56
23361;BME280;11852;50.082;18.554;2022-09-17T00:45:47;97597.0;;;11.89;81.51
23361;BME280;11852;50.082;18.554;2022-09-17T00:46:51;97598.5;;;11.92;81.34
23361;BME280;11852;50.082;18.554;2022-09-17T00:47:57;97597.0;;;12.05;81.0
23361;BME280;11852;50.082;18.554;2022-09-17T00:49:02;97595.5;;;11.99;81.15
23361;BME280;11852;50.082;18.554;2022-09-17T00:50:14;97596.5;;;12.09;81.0
23361;BME280;11852;50.082;18.554;2022-09-17T00:51:19;97597.0;;;12.15;81.0
23361;BME280;11852;50.082;18.554;2022-09-17T00:52:27;97594.5;;;12.18;81.0
23361;BME280;11852;50.082;18.554;2022-09-17T00:53:30;97590.0;;;12.09;81.25
23361;BME280;11852;50.082;18.554;2022-09-17T00:54:35;97588.0;;;12.17;80.97
23361;BME280;11852;50.082;18.554;2022-09-17T00:55:40;97589.5;;;12.13;81.07
23361;BME280;11852;50.082;18.554;2022-09-17T00:56:44;97588.0;;;12.03;81.32
23361;BME280;11852;50.082;18.554;2022-09-17T00:57:49;97586.5;;;12.15;80.99
23361;BME280;11852;50.082;18.554;2022-09-17T00:58:53;97586.0;;;12.16;80.89
23361;BME280;11852;50.082;18.554;2022-09-17T00:59:57;97585.0;;;12.11;80.99
23361;BME280;11852;50.082;18.554;2022-09-17T01:01:03;97581.0;;;12.16;80.71
23361;BME280;11852;50.082;18.554;2022-09-17T01:02:07;97584.0;;;12.21;80.54
23361;BME280;11852;50.082;18.554;2022-09-17T01:03:12;97580.5;;;12.02;81.14
23361;BME280;11852;50.082;18.554;2022-09-17T01:04:20;97580.5;;;12.1;80.88
23361;BME280;11852;50.082;18.554;2022-09-17T01:06:41;97578.0;;;11.6;82.7
23361;BME280;11852;50.082;18.554;2022-09-17T01:11:26;97575.5;;;11.32;83.03
23361;BME280;11852;50.082;18.554;2022-09-17T01:16:03;97580.5;;;11.38;82.86
23361;BME280;11852;50.082;18.554;2022-09-17T01:23:03;97582.49;;;12.0;81.06
23361;BME280;11852;50.082;18.554;2022-09-17T01:30:13;97579.5;;;11.59;81.94
23361;BME280;11852;50.082;18.554;2022-09-17T01:32:27;97577.5;;;11.75;81.61
23361;BME280;11852;50.082;18.554;2022-09-17T01:38:12;97571.0;;;11.91;81.07
23361;BME280;11852;50.082;18.554;2022-09-17T01:42:30;97568.01;;;11.23;83.06
23361;BME280;11852;50.082;18.554;2022-09-17T01:43:42;97567.51;;;11.24;82.73
23361;BME280;11852;50.082;18.554;2022-09-17T01:46:01;97571.0;;;11.46;81.82
23361;BME280;11852;50.082;18.554;2022-09-17T01:48:16;97571.5;;;11.11;83.1
23361;BME280;11852;50.082;18.554;2022-09-17T01:49:20;97572.5;;;11.18;82.9
23361;BME280;11852;50.082;18.554;2022-09-17T01:50:28;97573.0;;;11.33;82.43
23361;BME280;11852;50.082;18.554;2022-09-17T01:51:34;97572.0;;;11.38;82.33
23361;BME280;11852;50.082;18.554;2022-09-17T01:52:36;97572.0;;;11.38;82.37
23361;BME280;11852;50.082;18.554;2022-09-17T01:53:44;97569.99;;;11.34;82.47
23361;BME280;11852;50.082;18.554;2022-09-17T01:54:49;97570.0;;;11.22;82.86
23361;BME280;11852;50.082;18.554;2022-09-17T01:55:52;97568.0;;;11.02;83.49
23361;BME280;11852;50.082;18.554;2022-09-17T01:59:26;97569.0;;;11.27;82.57
23361;BME280;11852;50.082;18.554;2022-09-17T02:00:29;97569.99;;;11.52;81.68
23361;BME280;11852;50.082;18.554;2022-09-17T02:01:33;97571.5;;;11.32;82.49
23361;BME280;11852;50.082;18.554;2022-09-17T02:02:45;97571.0;;;11.4;82.11
23361;BME280;11852;50.082;18.554;2022-09-17T02:03:55;97570.0;;;11.48;82.01
23361;BME280;11852;50.082;18.554;2022-09-17T02:07:20;97568.5;;;11.64;81.63
23361;BME280;11852;50.082;18.554;2022-09-17T02:08:27;97567.5;;;11.73;81.44
23361;BME280;11852;50.082;18.554;2022-09-17T02:09:39;97567.51;;;11.76;81.37
23361;BME280;11852;50.082;18.554;2022-09-17T02:10:43;97572.5;;;11.48;82.24
23361;BME280;11852;50.082;18.554;2022-09-17T02:11:48;97570.49;;;11.59;81.64
23361;BME280;11852;50.082;18.554;2022-09-17T02:14:07;97569.99;;;11.69;81.25
23361;BME280;11852;50.082;18.554;2022-09-17T02:15:13;97575.0;;;11.74;80.96
23361;BME280;11852;50.082;18.554;2022-09-17T02:16:20;97574.0;;;11.6;81.31
23361;BME280;11852;50.082;18.554;2022-09-17T02:17:27;97578.5;;;11.69;80.95
23361;BME280;11852;50.082;18.554;2022-09-17T02:18:36;97574.5;;;11.75;80.9
23361;BME280;11852;50.082;18.554;2022-09-17T02:19:39;97573.5;;;11.55;81.61
23361;BME280;11852;50.082;18.554;2022-09-17T02:20:45;97576.0;;;11.61;81.34
23361;BME280;11852;50.082;18.554;2022-09-17T02:22:57;97579.0;;;11.6;81.44
23361;BME280;11852;50.082;18.554;2022-09-17T02:26:28;97579.5;;;11.65;81.22
23361;BME280;11852;50.082;18.554;2022-09-17T02:27:41;97578.5;;;11.65;81.17
23361;BME280;11852;50.082;18.554;2022-09-17T02:28:42;97580.01;;;11.55;81.43
23361;BME280;11852;50.082;18.554;2022-09-17T02:29:45;97584.0;;;11.66;80.95
23361;BME280;11852;50.082;18.554;2022-09-17T02:30:50;97585.5;;;11.65;80.96
23361;BME280;11852;50.082;18.554;2022-09-17T02:31:54;97584.5;;;11.69;80.84
23361;BME280;11852;50.082;18.554;2022-09-17T02:33:00;97583.5;;;11.7;80.95
23361;BME280;11852;50.082;18.554;2022-09-17T02:34:04;97584.5;;;11.7;81.01
23361;BME280;11852;50.082;18.554;2022-09-17T02:35:09;97585.5;;;11.74;80.85
23361;BME280;11852;50.082;18.554;2022-09-17T02:36:12;97589.5;;;11.73;80.86
23361;BME280;11852;50.082;18.554;2022-09-17T02:37:17;97591.0;;;11.68;80.98
23361;BME280;11852;50.082;18.554;2022-09-17T02:38:22;97588.0;;;11.76;80.75
23361;BME280;11852;50.082;18.554;2022-09-17T02:39:26;97589.0;;;11.78;80.65
23361;BME280;11852;50.082;18.554;2022-09-17T02:40:34;97589.5;;;11.65;80.97
23361;BME280;11852;50.082;18.554;2022-09-17T02:52:40;97587.0;;;11.49;81.26
23361;BME280;11852;50.082;18.554;2022-09-17T02:57:22;97582.0;;;11.41;80.99
23361;BME280;11852;50.082;18.554;2022-09-17T02:58:31;97579.5;;;11.36;81.07
23361;BME280;11852;50.082;18.554;2022-09-17T03:00:50;97580.0;;;10.56;83.67
23361;BME280;11852;50.082;18.554;2022-09-17T03:01:59;97578.0;;;10.93;82.31
23361;BME280;11852;50.082;18.554;2022-09-17T03:03:04;97574.5;;;10.83;82.74
23361;BME280;11852;50.082;18.554;2022-09-17T03:04:07;97574.5;;;10.76;83.1
23361;BME280;11852;50.082;18.554;2022-09-17T03:05:11;97571.5;;;10.93;82.49
23361;BME280;11852;50.082;18.554;2022-09-17T03:06:16;97568.0;;;10.64;83.56
23361;BME280;11852;50.082;18.554;2022-09-17T03:07:20;97568.0;;;10.68;83.35
23361;BME280;11852;50.082;18.554;2022-09-17T03:08:28;97566.5;;;10.73;83.12
23361;BME280;11852;50.082;18.554;2022-09-17T03:09:32;97567.01;;;10.98;82.46
23361;BME280;11852;50.082;18.554;2022-09-17T03:10:37;97563.5;;;11.11;82.08
23361;BME280;11852;50.082;18.554;2022-09-17T03:11:41;97562.5;;;11.18;81.96
23361;BME280;11852;50.082;18.554;2022-09-17T03:12:46;97562.0;;;10.92;82.72
23361;BME280;11852;50.082;18.554;2022-09-17T03:13:50;97563.5;;;11.15;81.87
23361;BME280;11852;50.082;18.554;2022-09-17T03:14:55;97563.5;;;11.19;81.64
23361;BME280;11852;50.082;18.554;2022-09-17T03:15:59;97564.5;;;11.24;81.46
23361;BME280;11852;50.082;18.554;2022-09-17T03:17:03;97562.5;;;11.34;81.13
23361;BME280;11852;50.082;18.554;2022-09-17T03:19:13;97559.0;;;11.32;81.29
23361;BME280;11852;50.082;18.554;2022-09-17T03:20:18;97559.0;;;11.27;81.51
23361;BME280;11852;50.082;18.554;2022-09-17T03:21:23;97556.0;;;11.27;81.54
23361;BME280;11852;50.082;18.554;2022-09-17T03:22:27;97554.5;;;11.3;81.42
23361;BME280;11852;50.082;18.554;2022-09-17T03:23:31;97554.0;;;11.04;82.25
23361;BME280;11852;50.082;18.554;2022-09-17T03:24:36;97554.0;;;11.19;81.68
23361;BME280;11852;50.082;18.554;2022-09-17T03:26:45;97551.5;;;10.97;82.44
23361;BME280;11852;50.082;18.554;2022-09-17T03:27:49;97552.5;;;11.14;81.72
23361;BME280;11852;50.082;18.554;2022-09-17T03:28:54;97552.0;;;11.22;81.44
23361;BME280;11852;50.082;18.554;2022-09-17T03:29:59;97549.0;;;11.05;81.89
23361;BME280;11852;50.082;18.554;2022-09-17T03:31:04;97548.5;;;11.2;81.43
23361;BME280;11852;50.082;18.554;2022-09-17T03:32:08;97548.5;;;11.27;81.14
23361;BME280;11852;50.082;18.554;2022-09-17T03:33:13;97546.0;;;11.28;81.17
23361;BME280;11852;50.082;18.554;2022-09-17T03:34:18;97546.0;;;11.13;81.66
23361;BME280;11852;50.082;18.554;2022-09-17T03:35:22;97546.5;;;11.19;81.4
23361;BME280;11852;50.082;18.554;2022-09-17T03:36:28;97546.5;;;11.19;81.42
23361;BME280;11852;50.082;18.554;2022-09-17T03:37:32;97545.49;;;11.17;81.51
23361;BME280;11852;50.082;18.554;2022-09-17T03:38:37;97544.0;;;11.24;81.34
23361;BME280;11852;50.082;18.554;2022-09-17T03:39:42;97544.0;;;11.35;81.04
23361;BME280;11852;50.082;18.554;2022-09-17T03:42:01;97541.5;;;11.29;81.15
23361;BME280;11852;50.082;18.554;2022-09-17T03:43:05;97543.0;;;11.32;81.08
23361;BME280;11852;50.082;18.554;2022-09-17T03:44:10;97543.0;;;10.97;82.07
23361;BME280;11852;50.082;18.554;2022-09-17T03:45:13;97542.01;;;10.99;81.97
23361;BME280;11852;50.082;18.554;2022-09-17T03:46:18;97541.0;;;11.15;81.39
23361;BME280;11852;50.082;18.554;2022-09-17T03:47:23;97539.0;;;11.23;81.15
23361;BME280;11852;50.082;18.554;2022-09-17T03:48:27;97537.0;;;11.27;81.0
23361;BME280;11852;50.082;18.554;2022-09-17T03:49:32;97537.0;;;11.28;81.08
23361;BME280;11852;50.082;18.554;2022-09-17T03:50:36;97536.0;;;11.31;81.13
23361;BME280;11852;50.082;18.554;2022-09-17T03:51:41;97535.0;;;11.35;81.03
23361;BME280;11852;50.082;18.554;2022-09-17T03:52:46;97533.0;;;11.43;80.9
23361;BME280;11852;50.082;18.554;2022-09-17T03:53:52;97528.0;;;11.4;80.96
23361;BME280;11852;50.082;18.554;2022-09-17T03:54:59;97530.0;;;11.44;80.71
23361;BME280;11852;50.082;18.554;2022-09-17T03:56:04;97528.0;;;11.24;81.29
23361;BME280;11852;50.082;18.554;2022-09-17T03:57:08;97529.0;;;11.33;80.92
23361;BME280;11852;50.082;18.554;2022-09-17T03:58:13;97530.0;;;11.22;81.26
23361;BME280;11852;50.082;18.554;2022-09-17T03:59:17;97533.5;;;10.95;81.96
23361;BME280;11852;50.082;18.554;2022-09-17T04:01:27;97535.5;;;11.14;81.27
23361;BME280;11852;50.082;18.554;2022-09-17T04:02:31;97533.5;;;11.14;81.28
23361;BME280;11852;50.082;18.554;2022-09-17T04:03:36;97536.0;;;11.17;81.23
23361;BME280;11852;50.082;18.554;2022-09-17T04:04:40;97538.0;;;11.05;81.71
23361;BME280;11852;50.082;18.554;2022-09-17T04:05:45;97537.5;;;11.13;81.52
23361;BME280;11852;50.082;18.554;2022-09-17T04:06:51;97536.0;;;11.13;81.51
23361;BME280;11852;50.082;18.554;2022-09-17T04:07:56;97535.0;;;11.19;81.34
23361;BME280;11852;50.082;18.554;2022-09-17T04:09:03;97536.5;;;11.17;81.47
23361;BME280;11852;50.082;18.554;2022-09-17T04:10:06;97536.5;;;10.89;82.34
23361;BME280;11852;50.082;18.554;2022-09-17T04:11:10;97538.0;;;11.05;81.72
23361;BME280;11852;50.082;18.554;2022-09-17T04:12:14;97537.0;;;11.0;81.75
23361;BME280;11852;50.082;18.554;2022-09-17T04:13:18;97539.5;;;11.05;81.59
23361;BME280;11852;50.082;18.554;2022-09-17T04:14:23;97539.5;;;10.93;81.85
23361;BME280;11852;50.082;18.554;2022-09-17T04:15:28;97539.0;;;10.89;81.81
23361;BME280;11852;50.082;18.554;2022-09-17T04:16:32;97541.5;;;10.91;81.78
23361;BME280;11852;50.082;18.554;2022-09-17T04:17:37;97540.5;;;11.03;81.4
23361;BME280;11852;50.082;18.554;2022-09-17T04:18:41;97537.5;;;10.89;81.94
23361;BME280;11852;50.082;18.554;2022-09-17T04:19:45;97535.5;;;11.01;81.57
23361;BME280;11852;50.082;18.554;2022-09-17T04:20:50;97532.5;;;11.06;81.57
23361;BME280;11852;50.082;18.554;2022-09-17T04:21:55;97525.0;;;11.09;81.53
23361;BME280;11852;50.082;18.554;2022-09-17T04:23:00;97525.5;;;11.11;81.47
23361;BME280;11852;50.082;18.554;2022-09-17T04:25:09;97521.0;;;11.04;81.72
23361;BME280;11852;50.082;18.554;2022-09-17T04:26:13;97521.5;;;10.85;82.16
23361;BME280;11852;50.082;18.554;2022-09-17T04:27:18;97523.0;;;10.92;81.92
23361;BME280;11852;50.082;18.554;2022-09-17T04:28:22;97519.5;;;10.95;81.79
23361;BME280;11852;50.082;18.554;2022-09-17T04:29:27;97517.0;;;11.04;81.4
23361;BME280;11852;50.082;18.554;2022-09-17T04:30:31;97514.5;;;10.74;82.13
23361;BME280;11852;50.082;18.554;2022-09-17T04:31:36;97516.5;;;10.84;81.65
23361;BME280;11852;50.082;18.554;2022-09-17T04:32:39;97517.01;;;10.76;82.04
23361;BME280;11852;50.082;18.554;2022-09-17T04:33:44;97515.5;;;10.9;81.47
23361;BME280;11852;50.082;18.554;2022-09-17T04:34:48;97519.5;;;10.78;81.96
23361;BME280;11852;50.082;18.554;2022-09-17T04:35:53;97519.0;;;10.85;81.85
23361;BME280;11852;50.082;18.554;2022-09-17T04:36:57;97514.5;;;10.95;81.64
23361;BME280;11852;50.082;18.554;2022-09-17T04:38:02;97513.5;;;10.75;82.28
23361;BME280;11852;50.082;18.554;2022-09-17T04:39:07;97511.5;;;10.88;81.8
23361;BME280;11852;50.082;18.554;2022-09-17T04:40:10;97510.5;;;10.82;82.06
23361;BME280;11852;50.082;18.554;2022-09-17T04:41:15;97507.49;;;10.45;83.26
23361;BME280;11852;50.082;18.554;2022-09-17T04:42:20;97510.5;;;10.42;83.16
23361;BME280;11852;50.082;18.554;2022-09-17T04:43:25;97511.5;;;10.27;83.62
23361;BME280;11852;50.082;18.554;2022-09-17T04:44:29;97511.5;;;10.45;83.02
23361;BME280;11852;50.082;18.554;2022-09-17T04:45:35;97511.5;;;10.64;82.46
23361;BME280;11852;50.082;18.554;2022-09-17T04:46:39;97513.0;;;10.68;82.31
23361;BME280;11852;50.082;18.554;2022-09-17T04:47:44;97515.0;;;10.74;82.13
23361;BME280;11852;50.082;18.554;2022-09-17T04:48:48;97515.0;;;10.76;82.08
23361;BME280;11852;50.082;18.554;2022-09-17T04:49:52;97518.0;;;10.82;81.96
23361;BME280;11852;50.082;18.554;2022-09-17T04:50:56;97519.5;;;10.9;81.9
23361;BME280;11852;50.082;18.554;2022-09-17T04:52:01;97521.0;;;10.62;82.83
23361;BME280;11852;50.082;18.554;2022-09-17T04:53:05;97521.0;;;10.55;83.06
23361;BME280;11852;50.082;18.554;2022-09-17T04:54:09;97524.5;;;10.57;82.93
23361;BME280;11852;50.082;18.554;2022-09-17T04:55:14;97528.5;;;10.56;83.04
23361;BME280;11852;50.082;18.554;2022-09-17T04:56:19;97534.5;;;10.48;83.38
23361;BME280;11852;50.082;18.554;2022-09-17T04:57:23;97538.0;;;10.52;83.19
23361;BME280;11852;50.082;18.554;2022-09-17T04:58:28;97539.5;;;10.26;84.06
23361;BME280;11852;50.082;18.554;2022-09-17T04:59:35;97543.01;;;10.18;84.26
23361;BME280;11852;50.082;18.554;2022-09-17T05:00:36;97544.0;;;10.09;84.73
23361;BME280;11852;50.082;18.554;2022-09-17T05:01:41;97543.5;;;10.17;84.42
23361;BME280;11852;50.082;18.554;2022-09-17T05:02:47;97544.0;;;10.36;83.71
23361;BME280;11852;50.082;18.554;2022-09-17T05:03:50;97549.0;;;10.28;84.19
23361;BME280;11852;50.082;18.554;2022-09-17T05:04:55;97552.0;;;10.38;83.87
23361;BME280;11852;50.082;18.554;2022-09-17T05:06:00;97553.0;;;10.28;84.52
23361;BME280;11852;50.082;18.554;2022-09-17T05:07:04;97556.49;;;10.16;84.87
23361;BME280;11852;50.082;18.554;2022-09-17T05:08:09;97556.5;;;10.08;85.09
23361;BME280;11852;50.082;18.554;2022-09-17T05:09:13;97553.5;;;10.13;84.91
23361;BME280;11852;50.082;18.554;2022-09-17T05:10:18;97555.01;;;10.27;84.47
23361;BME280;11852;50.082;18.554;2022-09-17T05:11:22;97554.0;;;10.24;84.71
23361;BME280;11852;50.082;18.554;2022-09-17T05:12:29;97547.5;;;10.5;83.81
23361;BME280;11852;50.082;18.554;2022-09-17T05:13:30;97543.0;;;10.51;83.88
23361;BME280;11852;50.082;18.554;2022-09-17T05:14:36;97544.5;;;10.55;83.83
23361;BME280;11852;50.082;18.554;2022-09-17T05:15:40;97542.51;;;10.8;83.01
23361;BME280;11852;50.082;18.554;2022-09-17T05:16:45;97542.01;;;10.7;83.51
23361;BME280;11852;50.082;18.554;2022-09-17T05:17:49;97544.5;;;10.84;82.93
23361;BME280;11852;50.082;18.554;2022-09-17T05:18:54;97542.0;;;10.54;84.07
23361;BME280;11852;50.082;18.554;2022-09-17T05:19:58;97544.5;;;10.63;83.87
23361;BME280;11852;50.082;18.554;2022-09-17T05:21:03;97544.0;;;10.59;83.83
23361;BME280;11852;50.082;18.554;2022-09-17T05:22:07;97544.0;;;10.43;84.34
23361;BME280;11852;50.082;18.554;2022-09-17T05:23:12;97544.5;;;10.35;84.71
23361;BME280;11852;50.082;18.554;2022-09-17T05:24:17;97547.0;;;10.32;84.62
23361;BME280;11852;50.082;18.554;2022-09-17T05:25:21;97552.0;;;10.32;84.81
23361;BME280;11852;50.082;18.554;2022-09-17T05:26:26;97551.5;;;10.64;83.69
23361;BME280;11852;50.082;18.554;2022-09-17T05:27:30;97554.5;;;10.92;82.93
23361;BME280;11852;50.082;18.554;2022-09-17T05:28:35;97550.5;;;11.0;82.88
23361;BME280;11852;50.082;18.554;2022-09-17T05:29:40;97548.0;;;10.82;83.61
23361;BME280;11852;50.082;18.554;2022-09-17T05:30:45;97547.5;;;10.91;83.29
23361;BME280;11852;50.082;18.554;2022-09-17T05:31:51;97545.49;;;10.41;85.07
23361;BME280;11852;50.082;18.554;2022-09-17T05:32:57;97546.5;;;10.62;84.18
23361;BME280;11852;50.082;18.554;2022-09-17T05:34:01;97547.0;;;10.4;84.96
23361;BME280;11852;50.082;18.554;2022-09-17T05:35:07;97547.0;;;10.64;84.15
23361;BME280;11852;50.082;18.554;2022-09-17T05:36:14;97547.5;;;10.93;83.15
23361;BME280;11852;50.082;18.554;2022-09-17T05:37:16;97551.5;;;10.97;83.21
23361;BME280;11852;50.082;18.554;2022-09-17T05:38:21;97556.0;;;11.06;83.04
23361;BME280;11852;50.082;18.554;2022-09-17T05:39:25;97556.49;;;10.86;83.92
23361;BME280;11852;50.082;18.554;2022-09-17T05:40:29;97557.5;;;10.95;83.51
23361;BME280;11852;50.082;18.554;2022-09-17T05:41:33;97561.5;;;10.9;83.72
23361;BME280;11852;50.082;18.554;2022-09-17T05:42:38;97559.0;;;10.95;83.62
23361;BME280;11852;50.082;18.554;2022-09-17T05:43:43;97556.5;;;10.94;83.83
23361;BME280;11852;50.082;18.554;2022-09-17T05:44:47;97555.01;;;11.14;83.3
23361;BME280;11852;50.082;18.554;2022-09-17T05:45:52;97552.0;;;11.24;83.07
23361;BME280;11852;50.082;18.554;2022-09-17T05:47:01;97551.5;;;11.09;83.74
23361;BME280;11852;50.082;18.554;2022-09-17T05:48:03;97552.0;;;11.1;83.67
23361;BME280;11852;50.082;18.554;2022-09-17T05:49:07;97553.0;;;11.13;83.62
23361;BME280;11852;50.082;18.554;2022-09-17T05:50:12;97551.5;;;11.0;84.16
23361;BME280;11852;50.082;18.554;2022-09-17T05:51:16;97552.5;;;11.29;83.02
23361;BME280;11852;50.082;18.554;2022-09-17T05:52:21;97556.5;;;11.11;83.77
23361;BME280;11852;50.082;18.554;2022-09-17T05:53:26;97554.51;;;11.13;83.79
23361;BME280;11852;50.082;18.554;2022-09-17T05:54:30;97552.5;;;11.02;84.2
23361;BME280;11852;50.082;18.554;2022-09-17T05:55:35;97551.0;;;11.23;83.5
23361;BME280;11852;50.082;18.554;2022-09-17T05:56:39;97550.0;;;11.29;83.38
23361;BME280;11852;50.082;18.554;2022-09-17T05:57:44;97548.0;;;11.29;83.46
23361;BME280;11852;50.082;18.554;2022-09-17T05:58:47;97545.0;;;11.0;84.58
23361;BME280;11852;50.082;18.554;2022-09-17T05:59:52;97545.49;;;11.23;83.58
23361;BME280;11852;50.082;18.554;2022-09-17T06:01:00;97545.0;;;11.32;83.41
23361;BME280;11852;50.082;18.554;2022-09-17T06:02:01;97542.0;;;11.36;83.33
23361;BME280;11852;50.082;18.554;2022-09-17T06:03:10;97543.5;;;11.16;84.07
23361;BME280;11852;50.082;18.554;2022-09-17T06:04:14;97540.0;;;11.34;83.4
23361;BME280;11852;50.082;18.554;2022-09-17T06:05:19;97535.5;;;11.38;83.43
23361;BME280;11852;50.082;18.554;2022-09-17T06:06:23;97532.5;;;11.51;82.99
23361;BME280;11852;50.082;18.554;2022-09-17T06:07:27;97529.0;;;11.7;82.37
23361;BME280;11852;50.082;18.554;2022-09-17T06:08:32;97524.0;;;11.23;84.08
23361;BME280;11852;50.082;18.554;2022-09-17T06:09:36;97524.0;;;11.59;82.64
23361;BME280;11852;50.082;18.554;2022-09-17T06:10:40;97524.5;;;11.78;82.15
23361;BME280;11852;50.082;18.554;2022-09-17T06:11:45;97525.0;;;11.89;82.0
23361;BME280;11852;50.082;18.554;2022-09-17T06:12:54;97526.5;;;12.01;81.9
23361;BME280;11852;50.082;18.554;2022-09-17T06:13:58;97526.5;;;11.91;82.49
23361;BME280;11852;50.082;18.554;2022-09-17T06:15:03;97527.5;;;12.12;81.89
23361;BME280;11852;50.082;18.554;2022-09-17T06:16:08;97529.51;;;12.12;81.86
23361;BME280;11852;50.082;18.554;2022-09-17T06:17:13;97532.5;;;12.3;81.44
23361;BME280;11852;50.082;18.554;2022-09-17T06:18:18;97534.5;;;12.36;81.4
23361;BME280;11852;50.082;18.554;2022-09-17T06:19:23;97535.0;;;11.97;82.57
23361;BME280;11852;50.082;18.554;2022-09-17T06:20:28;97541.5;;;12.16;81.71
23361;BME280;11852;50.082;18.554;2022-09-17T06:21:32;97547.0;;;11.72;82.88
23361;BME280;11852;50.082;18.554;2022-09-17T06:23:41;97545.0;;;12.18;81.44
23361;BME280;11852;50.082;18.554;2022-09-17T06:24:46;97546.0;;;12.15;81.74
23361;BME280;11852;50.082;18.554;2022-09-17T06:25:56;97549.5;;;12.05;82.01
23361;BME280;11852;50.082;18.554;2022-09-17T06:27:00;97547.5;;;11.96;82.4
23361;BME280;11852;50.082;18.554;2022-09-17T06:28:04;97554.0;;;12.05;82.15
23361;BME280;11852;50.082;18.554;2022-09-17T06:29:11;97553.0;;;12.23;81.5
23361;BME280;11852;50.082;18.554;2022-09-17T06:30:13;97559.0;;;12.4;81.18
23361;BME280;11852;50.082;18.554;2022-09-17T06:31:17;97558.0;;;12.39;81.4
23361;BME280;11852;50.082;18.554;2022-09-17T06:32:22;97560.0;;;12.57;80.95
23361;BME280;11852;50.082;18.554;2022-09-17T06:33:26;97558.5;;;12.36;81.78
23361;BME280;11852;50.082;18.554;2022-09-17T06:34:31;97558.5;;;12.39;81.65
23361;BME280;11852;50.082;18.554;2022-09-17T06:35:35;97562.0;;;12.56;81.11
23361;BME280;11852;50.082;18.554;2022-09-17T06:36:39;97560.0;;;11.82;83.28
23361;BME280;11852;50.082;18.554;2022-09-17T06:37:45;97557.5;;;11.77;82.99
23361;BME280;11852;50.082;18.554;2022-09-17T06:38:49;97556.5;;;11.97;82.19
23361;BME280;11852;50.082;18.554;2022-09-17T06:39:54;97557.0;;;11.97;82.32
23361;BME280;11852;50.082;18.554;2022-09-17T06:40:59;97559.5;;;11.69;83.38
23361;BME280;11852;50.082;18.554;2022-09-17T06:43:09;97557.0;;;11.74;83.08
23361;BME280;11852;50.082;18.554;2022-09-17T06:44:14;97558.0;;;11.55;83.88
23361;BME280;11852;50.082;18.554;2022-09-17T06:45:18;97555.5;;;11.83;82.69
23361;BME280;11852;50.082;18.554;2022-09-17T06:46:23;97558.0;;;11.81;82.93
23361;BME280;11852;50.082;18.554;2022-09-17T06:47:27;97553.0;;;11.75;83.31
23361;BME280;11852;50.082;18.554;2022-09-17T06:48:33;97555.0;;;11.93;82.69
23361;BME280;11852;50.082;18.554;2022-09-17T06:49:36;97548.0;;;12.25;81.76